Time;durP1;ratioP1;P1;durP2;ratioP2;P2;SDS_P1;SDS_P2;PMS_P1;PMS_P2;Temp;Humidity;BMP_temperature;BMP_pressure;BME280_temperature;BME280_humidity;BME280_pressure;Samples;Min_cycle;Max_cycle;Signal;HPM_P1;HPM_P2
2021/03/05 00:00:24;;;;;;;8.73;4.88;;;12.80;98.10;;;;;;5043934;28;20449;-53
2021/03/05 00:02:51;;;;;;;7.60;4.43;;;12.90;98.30;;;;;;5044289;28;20107;-53
2021/03/05 00:05:16;;;;;;;7.45;4.28;;;12.80;98.10;;;;;;5044565;28;20508;-53
2021/03/05 00:07:42;;;;;;;10.43;4.65;;;12.60;98.20;;;;;;5044940;28;20041;-53
2021/03/05 00:10:10;;;;;;;12.88;5.38;;;12.60;98.40;;;;;;5045271;28;20529;-52
2021/03/05 00:12:37;;;;;;;8.75;4.38;;;12.60;98.30;;;;;;5044815;28;20054;-53
2021/03/05 00:15:05;;;;;;;9.40;4.35;;;12.60;98.40;;;;;;5044938;28;20107;-53
2021/03/05 00:17:30;;;;;;;9.80;4.65;;;12.50;98.50;;;;;;5043912;28;20029;-54
2021/03/05 00:19:56;;;;;;;11.98;5.90;;;12.50;98.90;;;;;;5044463;28;20403;-53
2021/03/05 00:22:22;;;;;;;11.02;5.10;;;12.50;98.80;;;;;;5043975;28;20021;-54
2021/03/05 00:24:47;;;;;;;11.02;4.60;;;12.50;98.80;;;;;;5044707;28;20032;-54
2021/03/05 00:27:13;;;;;;;8.80;4.60;;;12.40;99.10;;;;;;5043190;28;20392;-54
2021/03/05 00:29:38;;;;;;;10.07;4.82;;;12.20;99.20;;;;;;5045061;28;20509;-55
2021/03/05 00:32:05;;;;;;;8.13;4.70;;;12.20;99.30;;;;;;5045319;28;20037;-54
2021/03/05 00:34:30;;;;;;;11.88;4.72;;;12.30;99.30;;;;;;5042821;28;20025;-54
2021/03/05 00:36:56;;;;;;;10.05;4.90;;;12.30;99.20;;;;;;5044398;28;20032;-54
2021/03/05 00:39:21;;;;;;;10.52;4.60;;;12.40;99.10;;;;;;5044099;28;20029;-54
2021/03/05 00:41:47;;;;;;;9.18;4.28;;;12.50;99.10;;;;;;5044730;28;20029;-54
2021/03/05 00:44:13;;;;;;;10.10;4.03;;;12.50;98.90;;;;;;5044482;28;20036;-54
2021/03/05 00:46:38;;;;;;;6.72;3.65;;;12.40;98.90;;;;;;5044761;28;20202;-54
2021/03/05 00:49:04;;;;;;;8.90;4.43;;;12.40;99.10;;;;;;5044863;28;20032;-54
2021/03/05 00:51:30;;;;;;;10.13;4.43;;;12.20;99.30;;;;;;5044064;28;20033;-54
2021/03/05 00:53:55;;;;;;;9.25;4.25;;;12.20;99.60;;;;;;5043827;28;20031;-53
2021/03/05 00:56:22;;;;;;;8.98;4.40;;;12.10;99.80;;;;;;5042790;28;20143;-54
2021/03/05 00:58:48;;;;;;;7.75;4.20;;;12.10;99.80;;;;;;5044547;28;20033;-54
2021/03/05 01:01:14;;;;;;;9.73;4.57;;;12.00;99.90;;;;;;5043252;28;20029;-53
2021/03/05 01:03:40;;;;;;;8.85;3.90;;;12.10;99.90;;;;;;5043842;28;20048;-53
2021/03/05 01:06:05;;;;;;;5.70;3.13;;;12.00;99.90;;;;;;5044758;28;20022;-54
2021/03/05 01:08:32;;;;;;;6.43;3.65;;;12.00;99.90;;;;;;5044048;28;20090;-53
2021/03/05 01:10:59;;;;;;;6.13;3.17;;;11.90;99.90;;;;;;5043880;28;20033;-53
2021/03/05 01:13:24;;;;;;;7.75;4.57;;;11.90;99.90;;;;;;5043754;28;20044;-53
2021/03/05 01:15:51;;;;;;;10.65;4.43;;;11.90;99.90;;;;;;5044377;28;20028;-53
2021/03/05 01:18:16;;;;;;;7.68;3.53;;;11.90;99.90;;;;;;5043828;28;20025;-54
2021/03/05 01:20:42;;;;;;;10.02;5.05;;;12.00;99.90;;;;;;5043934;28;20498;-53
2021/03/05 01:23:08;;;;;;;8.90;4.70;;;11.90;99.90;;;;;;5044557;28;20492;-54
2021/03/05 01:25:34;;;;;;;10.93;4.05;;;12.00;99.90;;;;;;5043511;28;20017;-55
2021/03/05 01:28:00;;;;;;;6.22;3.90;;;12.00;99.90;;;;;;5043958;28;20445;-54
2021/03/05 01:30:26;;;;;;;8.05;3.95;;;11.90;99.90;;;;;;5043695;28;20055;-55
2021/03/05 01:32:53;;;;;;;6.35;4.18;;;12.00;99.90;;;;;;5043876;28;20491;-54
2021/03/05 01:35:24;;;;;;;8.02;3.58;;;12.00;99.90;;;;;;5043736;28;20589;-54
2021/03/05 01:37:50;;;;;;;7.22;3.97;;;12.00;99.90;;;;;;5043875;28;20033;-54
2021/03/05 01:40:40;;;;;;;14.02;5.10;;;11.90;99.90;;;;;;5043460;28;20036;-54
2021/03/05 01:43:15;;;;;;;7.60;3.92;;;11.80;99.90;;;;;;5044552;28;20032;-54
2021/03/05 01:45:40;;;;;;;;;;;11.90;99.90;;;;;;5044734;28;20021;-53
2021/03/05 01:48:16;;;;;;;6.85;4.22;;;11.90;99.90;;;;;;5043957;28;20357;-54
2021/03/05 01:51:19;;;;;;;7.32;3.80;;;11.80;99.90;;;;;;5043982;28;20058;-54
2021/03/05 01:53:46;;;;;;;7.72;3.90;;;11.70;99.90;;;;;;5043408;28;20032;-54
2021/03/05 01:56:39;;;;;;;11.52;4.75;;;11.60;99.90;;;;;;5043650;28;20544;-54
2021/03/05 01:59:08;;;;;;;6.65;4.03;;;11.60;99.90;;;;;;5044446;28;20036;-53
2021/03/05 02:01:34;;;;;;;10.80;5.15;;;11.60;99.90;;;;;;5044082;28;20033;-54
2021/03/05 02:04:01;;;;;;;10.38;5.22;;;11.90;99.90;;;;;;5043564;28;20025;-54
2021/03/05 02:06:27;;;;;;;9.30;5.72;;;12.00;99.90;;;;;;5043447;28;20029;-55
2021/03/05 02:08:53;;;;;;;10.98;5.43;;;12.00;99.90;;;;;;5046288;28;20028;-53
2021/03/05 02:11:23;;;;;;;10.70;5.10;;;12.00;99.90;;;;;;5046637;28;20040;-55
2021/03/05 02:13:52;;;;;;;11.18;5.28;;;12.00;99.90;;;;;;5047332;28;20017;-54
2021/03/05 02:16:29;;;;;;;11.35;6.00;;;12.10;99.90;;;;;;5047049;28;20166;-53
2021/03/05 02:19:11;;;;;;;14.10;6.25;;;11.90;99.90;;;;;;5047101;28;20029;-54
2021/03/05 02:22:15;;;;;;;9.70;5.32;;;11.80;99.90;;;;;;5047333;28;20033;-54
2021/03/05 02:25:05;;;;;;;9.60;4.55;;;11.60;99.90;;;;;;5047196;28;20057;-54
2021/03/05 02:27:45;;;;;;;13.13;5.63;;;11.60;99.90;;;;;;5046472;28;20025;-54
2021/03/05 02:30:36;;;;;;;9.63;4.90;;;11.60;99.90;;;;;;5047114;28;20027;-53
2021/03/05 02:33:19;;;;;;;9.63;5.28;;;11.60;99.90;;;;;;5046794;28;20487;-54
2021/03/05 02:35:48;;;;;;;12.02;6.25;;;11.60;99.90;;;;;;5046816;28;20033;-55
2021/03/05 02:38:19;;;;;;;11.82;5.85;;;11.60;99.90;;;;;;5046413;28;20033;-54
2021/03/05 02:40:50;;;;;;;10.93;5.72;;;11.70;99.90;;;;;;5046673;28;20140;-54
2021/03/05 02:43:18;;;;;;;8.88;4.70;;;11.60;99.90;;;;;;5046457;28;20025;-54
2021/03/05 02:45:49;;;;;;;8.80;3.92;;;11.70;99.90;;;;;;5046786;28;20741;-54
2021/03/05 02:48:26;;;;;;;8.93;4.38;;;11.60;99.90;;;;;;5045115;28;20495;-54
2021/03/05 02:50:55;;;;;;;9.73;3.75;;;11.60;99.90;;;;;;5046274;28;20595;-54
2021/03/05 02:53:24;;;;;;;7.95;3.90;;;11.70;99.90;;;;;;5045833;28;20082;-53
2021/03/05 02:55:54;;;;;;;9.02;4.93;;;11.70;99.90;;;;;;5046281;28;20106;-54
2021/03/05 02:58:23;;;;;;;8.35;4.13;;;11.70;99.90;;;;;;5046361;28;20087;-55
2021/03/05 03:00:52;;;;;;;9.77;3.92;;;11.70;99.90;;;;;;5046250;28;20079;-54
2021/03/05 03:03:19;;;;;;;8.18;4.38;;;11.70;99.90;;;;;;5045756;28;20025;-53
2021/03/05 03:05:45;;;;;;;8.50;3.97;;;11.80;99.90;;;;;;5046121;28;20572;-55
2021/03/05 03:08:12;;;;;;;9.70;4.72;;;11.70;99.90;;;;;;5046205;28;20021;-53
2021/03/05 03:10:38;;;;;;;6.47;3.65;;;11.60;99.90;;;;;;5046401;28;20211;-55
2021/03/05 03:13:05;;;;;;;7.15;4.07;;;11.70;99.90;;;;;;5046419;28;20029;-54
2021/03/05 03:15:33;;;;;;;7.40;4.20;;;11.70;99.90;;;;;;5045770;28;20037;-55
2021/03/05 03:18:02;;;;;;;12.57;4.50;;;11.70;99.90;;;;;;5045816;28;20056;-55
2021/03/05 03:20:28;;;;;;;9.15;4.63;;;11.60;99.90;;;;;;5044604;28;20032;-55
2021/03/05 03:22:56;;;;;;;6.53;3.80;;;11.50;99.90;;;;;;5045905;28;20407;-53
2021/03/05 03:25:24;;;;;;;6.88;3.63;;;11.50;99.90;;;;;;5045601;28;20431;-54
2021/03/05 03:27:49;;;;;;;6.68;4.30;;;11.50;99.90;;;;;;5045590;28;20036;-55
2021/03/05 03:30:17;;;;;;;8.52;4.63;;;11.40;99.90;;;;;;5045401;28;20033;-55
2021/03/05 03:32:43;;;;;;;5.43;3.70;;;11.40;99.90;;;;;;5045632;28;20487;-55
2021/03/05 03:35:11;;;;;;;7.63;4.45;;;11.50;99.90;;;;;;5045594;28;20021;-54
2021/03/05 03:37:37;;;;;;;9.45;4.20;;;11.40;99.90;;;;;;5045858;28;20035;-55
2021/03/05 03:40:11;;;;;;;7.45;4.15;;;11.50;99.90;;;;;;5045941;28;20068;-54
2021/03/05 03:42:37;;;;;;;9.25;4.45;;;11.40;99.90;;;;;;5045477;28;20032;-55
2021/03/05 03:45:07;;;;;;;7.22;4.05;;;11.50;99.90;;;;;;5044462;28;20025;-55
2021/03/05 03:47:34;;;;;;;7.13;4.40;;;11.40;99.90;;;;;;5045130;28;20021;-53
2021/03/05 03:50:02;;;;;;;10.18;5.35;;;11.20;99.90;;;;;;5044823;28;20086;-55
2021/03/05 03:52:36;;;;;;;13.10;5.55;;;11.30;99.90;;;;;;5044799;28;20569;-55
2021/03/05 03:55:03;;;;;;;8.60;5.00;;;11.10;99.90;;;;;;5045543;28;20074;-54
2021/03/05 03:57:33;;;;;;;8.13;5.15;;;11.20;99.90;;;;;;5045064;28;20115;-54
2021/03/05 04:00:00;;;;;;;10.68;5.22;;;11.30;99.90;;;;;;5044526;28;20033;-55
2021/03/05 04:02:29;;;;;;;9.00;4.78;;;11.30;99.90;;;;;;5044250;28;20085;-54
2021/03/05 04:04:59;;;;;;;12.55;5.32;;;11.30;99.90;;;;;;5044970;28;20112;-54
2021/03/05 04:07:27;;;;;;;10.02;6.03;;;11.20;99.90;;;;;;5044642;28;20025;-54
2021/03/05 04:09:54;;;;;;;10.43;5.03;;;11.30;99.90;;;;;;5044997;28;20487;-53
2021/03/05 04:12:26;;;;;;;9.77;5.40;;;11.20;99.90;;;;;;5044677;28;20163;-54
2021/03/05 04:14:54;;;;;;;8.63;5.65;;;11.00;99.90;;;;;;5044928;28;20400;-54
2021/03/05 04:17:20;;;;;;;11.50;5.43;;;11.00;99.90;;;;;;5044554;28;20554;-54
2021/03/05 04:19:48;;;;;;;10.50;5.00;;;11.00;99.90;;;;;;5044162;28;20166;-54
2021/03/05 04:22:17;;;;;;;11.60;5.85;;;11.00;99.90;;;;;;5044206;28;20021;-54
2021/03/05 04:24:42;;;;;;;9.90;5.28;;;11.10;99.90;;;;;;5044800;28;20025;-54
2021/03/05 04:27:09;;;;;;;6.68;4.38;;;11.10;99.90;;;;;;5044792;28;20028;-54
2021/03/05 04:29:36;;;;;;;9.13;5.55;;;11.10;99.90;;;;;;5045077;28;20044;-56
2021/03/05 04:32:03;;;;;;;9.00;5.43;;;10.90;99.90;;;;;;5044215;28;20021;-54
2021/03/05 04:34:29;;;;;;;10.50;5.97;;;10.90;99.90;;;;;;5053748;28;20507;-55
2021/03/05 04:36:56;;;;;;;10.35;5.70;;;11.00;99.90;;;;;;5052209;28;20044;-55
2021/03/05 04:39:22;;;;;;;12.82;6.88;;;10.90;99.90;;;;;;5045494;28;20028;-54
2021/03/05 04:41:48;;;;;;;10.13;6.05;;;10.80;99.90;;;;;;5026363;28;20025;-54
2021/03/05 04:44:14;;;;;;;9.75;5.40;;;10.90;99.90;;;;;;5045092;28;20517;-54
2021/03/05 04:46:39;;;;;;;8.93;5.50;;;10.90;99.90;;;;;;5045555;28;20032;-55
2021/03/05 04:49:05;;;;;;;9.13;5.07;;;10.80;99.90;;;;;;5046470;28;20028;-55
2021/03/05 04:51:31;;;;;;;8.20;5.00;;;10.80;99.90;;;;;;5044011;28;20074;-55
2021/03/05 04:53:58;;;;;;;9.98;5.53;;;10.90;99.90;;;;;;5043604;28;20028;-54
2021/03/05 04:56:23;;;;;;;9.93;5.30;;;11.00;99.90;;;;;;5044016;28;20021;-54
2021/03/05 04:58:49;;;;;;;9.30;5.45;;;11.10;99.90;;;;;;5042913;28;20032;-54
2021/03/05 05:01:16;;;;;;;9.75;5.13;;;10.90;99.90;;;;;;5042145;28;20123;-55
2021/03/05 05:03:43;;;;;;;12.25;5.32;;;10.90;99.90;;;;;;5044294;28;20033;-54
2021/03/05 05:06:09;;;;;;;7.35;4.82;;;10.90;99.90;;;;;;5044179;28;20056;-55
2021/03/05 05:08:35;;;;;;;10.75;5.78;;;10.70;99.90;;;;;;5044740;28;20029;-55
2021/03/05 05:11:01;;;;;;;9.65;5.57;;;10.90;99.90;;;;;;5045592;28;20706;-54
2021/03/05 05:13:26;;;;;;;9.63;5.38;;;10.70;99.90;;;;;;5045854;28;20029;-55
2021/03/05 05:15:52;;;;;;;9.30;5.00;;;10.70;99.90;;;;;;5045775;28;20082;-55
2021/03/05 05:18:19;;;;;;;12.57;5.38;;;10.80;99.90;;;;;;5045481;28;20035;-54
2021/03/05 05:20:45;;;;;;;10.82;5.75;;;10.80;99.90;;;;;;5045763;28;20037;-55
2021/03/05 05:23:10;;;;;;;9.05;5.30;;;10.90;99.90;;;;;;5045818;28;20029;-53
2021/03/05 05:25:36;;;;;;;8.68;5.22;;;10.80;99.90;;;;;;5046159;28;20032;-55
2021/03/05 05:28:02;;;;;;;9.90;6.13;;;10.70;99.90;;;;;;5045498;28;20396;-55
2021/03/05 05:30:28;;;;;;;9.02;5.93;;;10.90;99.90;;;;;;5044406;28;20033;-55
2021/03/05 05:32:54;;;;;;;10.77;6.13;;;10.90;99.90;;;;;;5043796;28;20039;-55
2021/03/05 05:35:20;;;;;;;9.77;5.72;;;10.90;99.90;;;;;;5043783;28;20033;-54
2021/03/05 05:37:45;;;;;;;10.40;6.07;;;10.90;99.90;;;;;;5044256;28;20029;-55
2021/03/05 05:40:11;;;;;;;10.65;5.55;;;10.70;99.90;;;;;;5043899;28;20067;-54
2021/03/05 05:42:37;;;;;;;10.55;6.57;;;10.60;99.90;;;;;;5043154;28;20029;-55
2021/03/05 05:45:04;;;;;;;9.48;6.15;;;10.70;99.90;;;;;;5047994;28;20581;-54
2021/03/05 05:47:34;;;;;;;14.63;7.32;;;10.70;99.90;;;;;;5046642;28;20029;-54
2021/03/05 05:50:05;;;;;;;11.13;6.60;;;11.00;99.90;;;;;;5048233;28;20406;-54
2021/03/05 05:52:32;;;;;;;11.00;6.65;;;11.10;99.90;;;;;;5046761;28;20028;-55
2021/03/05 05:55:00;;;;;;;13.65;6.82;;;11.00;99.90;;;;;;5047722;28;20106;-55
2021/03/05 05:57:28;;;;;;;12.65;6.63;;;11.10;99.90;;;;;;5046835;28;20479;-55
2021/03/05 05:59:57;;;;;;;10.20;6.75;;;11.10;99.90;;;;;;5046829;28;20025;-54
2021/03/05 06:02:23;;;;;;;10.32;6.22;;;11.00;99.90;;;;;;5045626;28;20194;-54
2021/03/05 06:04:55;;;;;;;12.10;6.53;;;10.80;99.90;;;;;;5048196;28;20057;-55
2021/03/05 06:07:22;;;;;;;11.93;6.60;;;10.70;99.90;;;;;;5047059;28;20094;-55
2021/03/05 06:09:52;;;;;;;11.98;6.65;;;10.70;99.90;;;;;;5047748;28;20033;-54
2021/03/05 06:12:18;;;;;;;11.07;7.40;;;10.70;99.90;;;;;;5047446;28;20039;-54
2021/03/05 06:14:45;;;;;;;12.60;7.40;;;10.70;99.90;;;;;;5047120;28;20076;-55
2021/03/05 06:17:13;;;;;;;11.43;6.85;;;10.90;99.90;;;;;;5046545;28;20036;-55
2021/03/05 06:19:39;;;;;;;10.93;7.20;;;10.90;99.90;;;;;;5046033;28;20029;-56
2021/03/05 06:22:21;;;;;;;12.25;6.57;;;10.90;99.90;;;;;;5047209;28;20191;-55
2021/03/05 06:24:48;;;;;;;9.30;5.72;;;10.80;99.90;;;;;;5047899;28;20020;-55
2021/03/05 06:27:16;;;;;;;12.40;6.35;;;10.70;99.90;;;;;;5046833;28;20025;-55
2021/03/05 06:29:44;;;;;;;9.57;5.68;;;10.60;99.90;;;;;;5046867;28;20033;-55
2021/03/05 06:32:12;;;;;;;10.35;6.28;;;10.60;99.90;;;;;;5047025;28;20380;-55
2021/03/05 06:34:56;;;;;;;9.98;6.00;;;10.70;99.90;;;;;;5046883;28;20574;-55
2021/03/05 06:37:23;;;;;;;12.45;6.78;;;10.60;99.90;;;;;;5046495;28;20040;-53
2021/03/05 06:40:09;;;;;;;11.55;6.20;;;10.60;99.90;;;;;;5047844;28;20040;-54
2021/03/05 06:42:55;;;;;;;11.20;6.97;;;10.60;99.90;;;;;;5046365;28;20036;-54
2021/03/05 06:45:34;;;;;;;11.65;7.13;;;10.80;99.90;;;;;;5046665;28;20049;-53
2021/03/05 06:48:06;;;;;;;12.07;7.40;;;10.80;99.90;;;;;;5046393;28;20121;-54
2021/03/05 06:50:34;;;;;;;9.63;6.28;;;10.60;99.90;;;;;;5046197;28;20036;-54
2021/03/05 06:52:59;;;;;;;12.20;6.63;;;10.50;99.90;;;;;;5046575;28;20490;-54
2021/03/05 06:55:25;;;;;;;11.95;7.20;;;10.60;99.90;;;;;;5046630;28;20029;-54
2021/03/05 06:57:54;;;;;;;11.00;6.88;;;10.50;99.90;;;;;;5046033;28;20060;-53
2021/03/05 07:00:23;;;;;;;11.85;7.65;;;10.50;99.90;;;;;;5045842;28;20031;-55
2021/03/05 07:02:50;;;;;;;14.27;7.90;;;10.40;99.90;;;;;;5047094;28;20108;-54
2021/03/05 07:05:17;;;;;;;12.52;7.22;;;10.30;99.90;;;;;;5046787;28;20021;-55
2021/03/05 07:07:44;;;;;;;14.23;7.47;;;10.40;99.90;;;;;;5046178;28;20085;-54
2021/03/05 07:10:12;;;;;;;10.68;6.45;;;10.30;99.90;;;;;;5046417;28;20432;-54
2021/03/05 07:12:38;;;;;;;14.73;9.25;;;10.40;99.90;;;;;;5045714;28;20032;-54
2021/03/05 07:15:10;;;;;;;14.07;8.60;;;10.20;99.90;;;;;;5046100;28;20414;-54
2021/03/05 07:17:36;;;;;;;10.77;6.93;;;10.30;99.90;;;;;;5045881;28;20025;-53
2021/03/05 07:20:06;;;;;;;11.30;7.43;;;10.30;99.90;;;;;;5046061;28;20017;-55
2021/03/05 07:22:33;;;;;;;12.45;7.18;;;10.30;99.90;;;;;;5045842;28;20021;-55
2021/03/05 07:25:02;;;;;;;12.55;7.50;;;10.10;99.90;;;;;;5046098;28;20074;-54
2021/03/05 07:27:34;;;;;;;13.20;7.68;;;10.00;99.90;;;;;;5045434;28;20021;-55
2021/03/05 07:30:02;;;;;;;14.10;7.75;;;9.90;99.90;;;;;;5046002;28;20035;-55
2021/03/05 07:32:38;;;;;;;12.35;7.95;;;10.10;99.90;;;;;;5045568;28;20036;-55
2021/03/05 07:35:06;;;;;;;12.10;7.60;;;10.00;99.90;;;;;;5045898;28;20100;-55
2021/03/05 07:37:36;;;;;;;12.68;7.43;;;10.10;99.90;;;;;;5045690;28;20032;-54
2021/03/05 07:40:10;;;;;;;10.18;6.65;;;10.20;99.90;;;;;;5044676;28;20021;-54
2021/03/05 07:42:38;;;;;;;11.93;7.25;;;10.10;99.90;;;;;;5045648;28;20055;-55
2021/03/05 07:45:05;;;;;;;14.50;7.10;;;10.10;99.90;;;;;;5045113;28;20025;-54
2021/03/05 07:47:33;;;;;;;11.13;7.30;;;10.30;99.90;;;;;;5045332;28;20029;-54
2021/03/05 07:50:01;;;;;;;10.32;6.53;;;10.40;99.90;;;;;;5046141;28;20029;-55
2021/03/05 07:52:27;;;;;;;14.95;7.68;;;10.50;99.90;;;;;;5044787;28;20042;-54
2021/03/05 07:54:54;;;;;;;11.05;7.18;;;10.50;99.90;;;;;;5044955;28;20032;-54
2021/03/05 07:57:23;;;;;;;12.07;7.18;;;10.60;99.90;;;;;;5043983;28;20041;-54
2021/03/05 07:59:51;;;;;;;12.95;6.95;;;10.50;99.90;;;;;;5044968;28;20035;-54
2021/03/05 08:02:22;;;;;;;12.25;7.78;;;10.60;99.90;;;;;;5045176;28;20032;-55
2021/03/05 08:07:18;;;;;;;10.07;6.55;;;10.70;99.90;;;;;;5044553;28;20130;-54
2021/03/05 08:09:44;;;;;;;9.98;6.15;;;10.80;99.90;;;;;;5044975;28;20021;-54
2021/03/05 08:15:08;;;;;;;9.15;6.43;;;10.80;99.90;;;;;;5044615;28;20037;-55
2021/03/05 08:17:35;;;;;;;8.65;6.13;;;10.60;99.90;;;;;;5043892;28;20222;-55
2021/03/05 08:20:02;;;;;;;9.48;5.80;;;10.70;99.90;;;;;;5045476;28;20068;-54
2021/03/05 08:22:31;;;;;;;11.52;6.82;;;10.60;99.90;;;;;;5044999;28;20426;-55
2021/03/05 08:25:24;;;;;;;10.85;6.68;;;10.80;99.90;;;;;;5044786;28;20013;-54
2021/03/05 08:27:50;;;;;;;10.82;6.93;;;10.60;99.90;;;;;;5044932;28;20031;-55
2021/03/05 08:30:18;;;;;;;12.60;7.80;;;10.50;99.90;;;;;;5044227;28;20025;-55
2021/03/05 08:32:54;;;;;;;12.70;7.53;;;10.40;99.90;;;;;;5044882;28;20052;-55
2021/03/05 08:35:29;;;;;;;15.20;8.73;;;10.30;99.90;;;;;;5044471;28;20082;-55
2021/03/05 08:38:08;;;;;;;16.55;8.77;;;10.20;99.90;;;;;;5043197;28;20469;-55
2021/03/05 08:40:37;;;;;;;10.35;6.70;;;10.10;99.90;;;;;;5044322;28;20573;-54
2021/03/05 08:43:19;;;;;;;9.57;5.72;;;10.40;99.90;;;;;;5044706;28;20374;-55
2021/03/05 08:45:52;;;;;;;9.27;5.82;;;10.50;99.90;;;;;;5044983;28;20108;-55
2021/03/05 08:48:27;;;;;;;10.52;6.40;;;10.60;99.90;;;;;;5044107;28;20407;-54
2021/03/05 08:51:03;;;;;;;10.52;6.00;;;10.50;99.90;;;;;;5044403;28;20400;-55
2021/03/05 08:53:29;;;;;;;15.00;8.23;;;10.50;99.90;;;;;;5044165;28;20036;-54
2021/03/05 08:55:54;;;;;;;14.52;6.88;;;10.20;99.90;;;;;;5043893;28;20260;-54
2021/03/05 08:58:21;;;;;;;9.75;6.60;;;10.10;99.90;;;;;;5043248;28;20036;-54
2021/03/05 09:00:46;;;;;;;11.02;6.88;;;10.40;99.90;;;;;;5044313;28;20028;-54
2021/03/05 09:03:15;;;;;;;10.27;5.95;;;10.10;99.90;;;;;;5044425;28;20029;-54
2021/03/05 09:05:49;;;;;;;9.65;5.55;;;10.20;99.90;;;;;;5044201;28;20021;-55
2021/03/05 09:08:18;;;;;;;12.10;5.68;;;10.60;99.90;;;;;;5041420;28;20060;-54
2021/03/05 09:10:52;;;;;;;10.40;6.50;;;10.80;99.90;;;;;;5042736;28;20775;-55
2021/03/05 09:13:29;;;;;;;10.60;7.17;;;10.50;99.90;;;;;;5043719;28;20037;-55
2021/03/05 09:16:01;;;;;;;12.10;7.15;;;10.50;99.90;;;;;;5046025;28;20033;-54
2021/03/05 09:18:32;;;;;;;14.52;7.68;;;10.40;99.90;;;;;;5045629;28;20157;-55
2021/03/05 09:21:09;;;;;;;20.40;11.93;;;10.30;99.90;;;;;;5050008;28;20029;-55
2021/03/05 09:23:42;;;;;;;16.85;10.60;;;9.90;99.90;;;;;;5047660;28;20841;-55
2021/03/05 09:26:16;;;;;;;18.40;11.13;;;9.80;99.90;;;;;;5050016;28;20025;-55
2021/03/05 09:28:43;;;;;;;16.83;10.88;;;9.80;99.90;;;;;;5049685;28;20665;-55
2021/03/05 09:31:13;;;;;;;16.58;9.05;;;9.80;99.90;;;;;;5049861;28;20025;-54
2021/03/05 09:33:41;;;;;;;12.65;7.95;;;9.90;99.90;;;;;;5047812;28;20040;-54
2021/03/05 09:36:10;;;;;;;12.55;7.82;;;10.10;99.90;;;;;;5049439;28;20044;-56
2021/03/05 09:38:37;;;;;;;12.25;7.00;;;10.10;99.90;;;;;;5049257;28;20036;-55
2021/03/05 09:41:18;;;;;;;13.95;8.40;;;10.20;99.90;;;;;;5048366;28;20033;-55
2021/03/05 09:43:57;;;;;;;13.90;8.00;;;10.20;99.90;;;;;;5046915;28;20406;-55
2021/03/05 09:46:26;;;;;;;12.25;7.75;;;10.50;99.90;;;;;;5048738;28;20128;-56
2021/03/05 09:48:54;;;;;;;16.60;10.15;;;10.60;99.90;;;;;;5049356;28;20021;-55
2021/03/05 09:51:20;;;;;;;14.20;9.20;;;10.30;99.90;;;;;;5046419;28;20558;-55
2021/03/05 09:53:54;;;;;;;12.68;8.23;;;10.40;99.90;;;;;;5046773;28;20036;-55
2021/03/05 09:56:23;;;;;;;13.02;8.43;;;10.40;99.90;;;;;;5027281;28;20034;-55
2021/03/05 09:58:59;;;;;;;15.98;10.05;;;10.50;99.90;;;;;;5029157;28;20112;-55
2021/03/05 10:01:26;;;;;;;14.80;10.45;;;10.40;99.90;;;;;;5046408;28;20418;-55
2021/03/05 10:03:59;;;;;;;19.98;12.60;;;10.40;99.90;;;;;;5047461;28;20025;-55
2021/03/05 10:06:27;;;;;;;17.05;10.23;;;10.40;99.90;;;;;;5046969;28;20033;-53
2021/03/05 10:09:05;;;;;;;13.02;8.73;;;10.50;99.90;;;;;;5046364;28;20036;-54
2021/03/05 10:11:37;;;;;;;12.60;7.55;;;10.70;99.90;;;;;;5046242;28;20483;-55
2021/03/05 10:14:23;;;;;;;10.63;7.97;;;11.00;99.90;;;;;;5044974;28;20033;-54
2021/03/05 10:16:50;;;;;;;12.75;7.93;;;11.00;99.90;;;;;;5044287;28;20049;-55
2021/03/05 10:19:24;;;;;;;12.27;8.15;;;10.90;99.90;;;;;;5043652;28;20021;-53
2021/03/05 10:21:51;;;;;;;14.48;7.85;;;11.00;99.90;;;;;;5043216;28;20063;-54
2021/03/05 10:24:18;;;;;;;12.18;8.60;;;11.10;99.90;;;;;;5044303;28;20115;-54
2021/03/05 10:27:11;;;;;;;11.57;7.78;;;11.10;99.90;;;;;;5045055;28;20553;-55
2021/03/05 10:29:38;;;;;;;19.30;10.68;;;11.20;99.90;;;;;;5044555;28;20017;-56
2021/03/05 10:32:15;;;;;;;17.15;10.60;;;10.90;99.90;;;;;;5044075;28;20040;-55
2021/03/05 10:34:40;;;;;;;15.25;9.60;;;10.90;99.90;;;;;;5044978;28;20519;-55
2021/03/05 10:37:06;;;;;;;20.50;11.57;;;10.80;99.90;;;;;;5045003;28;20040;-53
2021/03/05 10:39:34;;;;;;;21.33;12.98;;;11.10;99.90;;;;;;5045621;28;20404;-55
2021/03/05 10:42:02;;;;;;;22.70;11.60;;;11.10;99.90;;;;;;5044725;28;20079;-53
2021/03/05 10:44:29;;;;;;;17.13;10.50;;;11.10;99.90;;;;;;5044539;28;20032;-55
2021/03/05 10:46:56;;;;;;;19.27;10.68;;;11.30;99.90;;;;;;5044602;28;20064;-54
2021/03/05 10:49:22;;;;;;;11.63;7.90;;;11.30;99.90;;;;;;5043462;28;20016;-53
2021/03/05 10:51:48;;;;;;;9.23;5.97;;;11.70;99.90;;;;;;5044838;28;20577;-54
2021/03/05 10:54:13;;;;;;;7.97;5.18;;;12.10;99.90;;;;;;5041553;28;20110;-54
2021/03/05 10:56:40;;;;;;;6.93;4.50;;;12.20;99.90;;;;;;5044249;28;20033;-54
2021/03/05 10:59:08;;;;;;;6.00;4.38;;;12.30;99.90;;;;;;5044710;28;20502;-55
2021/03/05 11:01:33;;;;;;;7.90;5.03;;;12.30;99.90;;;;;;5044523;28;20029;-54
2021/03/05 11:03:59;;;;;;;12.82;7.85;;;12.40;99.90;;;;;;5045183;28;20051;-55
2021/03/05 11:06:24;;;;;;;9.88;6.68;;;12.10;99.90;;;;;;5044660;28;20029;-55
2021/03/05 11:08:51;;;;;;;10.65;6.75;;;12.20;99.90;;;;;;5044718;28;20048;-56
2021/03/05 11:11:17;;;;;;;11.85;7.47;;;12.20;99.90;;;;;;5019423;28;607355;-54
2021/03/05 11:13:42;;;;;;;19.52;8.75;;;12.00;99.90;;;;;;5033830;28;20080;-54
2021/03/05 11:16:08;;;;;;;9.98;7.05;;;11.90;99.90;;;;;;5047248;28;20067;-54
2021/03/05 11:18:34;;;;;;;10.20;6.63;;;12.10;99.90;;;;;;5046813;28;20025;-53
2021/03/05 11:21:00;;;;;;;11.40;7.57;;;12.30;99.90;;;;;;5047579;28;20039;-54
2021/03/05 11:23:26;;;;;;;20.90;12.70;;;12.10;99.90;;;;;;5047275;28;20395;-54
2021/03/05 11:25:52;;;;;;;18.00;11.82;;;11.70;99.90;;;;;;5047199;28;20036;-55
2021/03/05 11:28:18;;;;;;;15.88;10.80;;;11.70;99.90;;;;;;5046836;28;20440;-53
2021/03/05 11:30:44;;;;;;;17.38;10.65;;;11.90;99.90;;;;;;5047061;28;20029;-54
2021/03/05 11:33:11;;;;;;;12.80;9.88;;;12.00;99.90;;;;;;5046792;28;20025;-54
2021/03/05 11:35:37;;;;;;;13.90;8.38;;;12.00;99.90;;;;;;5044264;28;20159;-54
2021/03/05 11:38:03;;;;;;;9.60;6.55;;;12.20;99.90;;;;;;5043064;28;20551;-55
2021/03/05 11:40:29;;;;;;;8.98;5.80;;;12.30;99.90;;;;;;5043239;28;20523;-55
2021/03/05 11:42:54;;;;;;;8.57;6.35;;;12.70;99.90;;;;;;5044743;28;20028;-52
2021/03/05 11:45:20;;;;;;;12.55;7.78;;;12.50;99.90;;;;;;5044290;28;20025;-53
2021/03/05 11:47:45;;;;;;;10.02;6.53;;;12.40;99.90;;;;;;5046448;28;20021;-53
2021/03/05 11:50:13;;;;;;;7.90;5.90;;;12.60;99.90;;;;;;5046784;28;20051;-54
2021/03/05 11:52:39;;;;;;;13.60;7.25;;;12.60;99.90;;;;;;5046068;28;20499;-53
2021/03/05 11:55:06;;;;;;;12.82;8.20;;;12.60;99.90;;;;;;5045329;28;20041;-54
2021/03/05 11:57:32;;;;;;;17.20;10.75;;;12.60;99.90;;;;;;5046573;28;20035;-57
2021/03/05 11:59:58;;;;;;;18.50;13.02;;;12.70;99.90;;;;;;5046766;28;20398;-57
2021/03/05 12:02:23;;;;;;;15.60;9.80;;;12.60;99.90;;;;;;5045099;28;20025;-54
2021/03/05 12:04:50;;;;;;;17.77;10.60;;;12.90;99.90;;;;;;5046400;28;20087;-54
2021/03/05 12:07:16;;;;;;;11.98;8.48;;;12.90;99.90;;;;;;5046185;28;20029;-54
2021/03/05 12:09:41;;;;;;;14.52;7.70;;;13.10;99.90;;;;;;5046523;28;20075;-54
2021/03/05 12:12:07;;;;;;;10.40;7.30;;;13.20;99.90;;;;;;5043373;28;20125;-54
2021/03/05 12:14:33;;;;;;;12.30;8.50;;;13.20;99.90;;;;;;5045499;28;20021;-54
2021/03/05 12:16:59;;;;;;;15.25;10.70;;;13.30;99.90;;;;;;5045736;28;20392;-54
2021/03/05 12:19:25;;;;;;;20.45;13.20;;;13.30;99.90;;;;;;5041323;28;20079;-55
2021/03/05 12:21:51;;;;;;;17.95;11.02;;;13.10;99.90;;;;;;5033301;28;20036;-54
2021/03/05 12:24:17;;;;;;;19.58;13.07;;;13.40;99.90;;;;;;5044073;28;20025;-53
2021/03/05 12:26:42;;;;;;;14.48;10.20;;;13.10;99.90;;;;;;5043897;28;20017;-54
2021/03/05 12:29:09;;;;;;;12.70;9.35;;;13.40;99.90;;;;;;5043799;28;20546;-53
2021/03/05 12:31:35;;;;;;;16.90;11.25;;;13.40;99.90;;;;;;5043555;28;20033;-55
2021/03/05 12:34:02;;;;;;;21.17;13.68;;;13.20;99.90;;;;;;5044649;28;20589;-56
2021/03/05 12:36:29;;;;;;;22.60;14.50;;;13.00;99.90;;;;;;5044263;28;20029;-55
2021/03/05 12:38:55;;;;;;;28.80;15.70;;;12.50;99.90;;;;;;5028152;28;20045;-56
2021/03/05 12:41:20;;;;;;;25.65;15.07;;;12.50;99.90;;;;;;5023523;28;20025;-56
2021/03/05 12:43:46;;;;;;;20.83;14.05;;;12.60;99.90;;;;;;5024040;28;20028;-54
2021/03/05 12:46:12;;;;;;;26.38;16.02;;;12.60;99.90;;;;;;5026569;28;20117;-54
2021/03/05 12:48:38;;;;;;;21.92;12.98;;;12.60;99.90;;;;;;5043244;28;20485;-55
2021/03/05 12:51:05;;;;;;;22.80;14.15;;;12.90;99.90;;;;;;5044018;28;20017;-54
2021/03/05 12:53:32;;;;;;;18.48;12.13;;;12.80;99.90;;;;;;5043544;28;20035;-55